Time;durP1;ratioP1;P1;durP2;ratioP2;P2;SDS_P1;SDS_P2;PMS_P1;PMS_P2;Temp;Humidity;BMP_temperature;BMP_pressure;BME280_temperature;BME280_humidity;BME280_pressure;Samples;Min_cycle;Max_cycle;Signal;HPM_P1;HPM_P2
2023/03/31 00:00:43;;;;;;;55.22;5.30;;;;;;;10.37;100.00;100182.56;5088141;28;20020;-48
2023/03/31 00:03:20;;;;;;;46.95;5.90;;;;;;;10.37;100.00;100177.19;5080787;28;20032;-49
2023/03/31 00:05:47;;;;;;;64.55;6.80;;;;;;;10.49;100.00;100181.00;5084931;28;20426;-49
2023/03/31 00:08:12;;;;;;;61.90;5.60;;;;;;;10.50;100.00;100169.19;5075404;28;20096;-47
2023/03/31 00:10:44;;;;;;;46.58;6.00;;;;;;;10.45;100.00;100167.13;5070272;28;20556;-48
2023/03/31 00:13:10;;;;;;;50.78;5.95;;;;;;;10.46;100.00;100154.50;5071068;28;20044;-48
2023/03/31 00:15:35;;;;;;;42.75;5.47;;;;;;;10.51;100.00;100160.13;5076870;28;20062;-48
2023/03/31 00:18:01;;;;;;;48.88;5.22;;;;;;;10.51;100.00;100157.41;5070811;28;20070;-49
2023/03/31 00:20:27;;;;;;;56.33;6.15;;;;;;;10.50;100.00;100153.06;5069367;28;20032;-48
2023/03/31 00:22:53;;;;;;;51.95;5.65;;;;;;;10.46;100.00;100151.81;5070797;28;20179;-48
2023/03/31 00:25:19;;;;;;;46.58;5.50;;;;;;;10.39;100.00;100149.06;5071954;28;20025;-49
2023/03/31 00:27:45;;;;;;;32.80;4.30;;;;;;;10.39;100.00;100153.63;5071356;28;20071;-49
2023/03/31 00:30:12;;;;;;;45.53;5.38;;;;;;;10.36;100.00;100143.25;5069999;28;20032;-48
2023/03/31 00:32:38;;;;;;;38.78;4.10;;;;;;;10.38;100.00;100143.91;5075382;28;20047;-50
2023/03/31 00:35:04;;;;;;;39.03;4.95;;;;;;;10.42;100.00;100140.59;5074431;28;20404;-47
2023/03/31 00:37:29;;;;;;;39.03;5.35;;;;;;;10.45;100.00;100131.28;5072756;28;20127;-49
2023/03/31 00:39:55;;;;;;;37.50;5.13;;;;;;;10.46;100.00;100123.03;5071752;28;20135;-47
2023/03/31 00:42:21;;;;;;;44.83;5.82;;;;;;;10.45;100.00;100117.84;5075429;28;20396;-50
2023/03/31 00:45:18;;;;;;;43.45;6.40;;;;;;;10.45;100.00;100112.47;5069262;28;20020;-48
2023/03/31 00:48:10;;;;;;;38.17;5.05;;;;;;;10.46;100.00;100106.06;5069529;28;20276;-50
2023/03/31 00:50:40;;;;;;;37.40;4.63;;;;;;;10.49;100.00;100101.09;5073859;28;20455;-49
2023/03/31 00:53:12;;;;;;;32.78;4.18;;;;;;;10.57;100.00;100101.97;5070007;28;20032;-48
2023/03/31 00:55:42;;;;;;;33.92;4.85;;;;;;;10.61;100.00;100098.69;5069230;28;20046;-49
2023/03/31 00:58:08;;;;;;;26.60;4.68;;;;;;;10.68;100.00;100088.75;5065982;28;20035;-48
2023/03/31 01:00:33;;;;;;;37.00;5.63;;;;;;;10.70;100.00;100080.50;5074441;28;20021;-48
2023/03/31 01:03:05;;;;;;;38.38;5.00;;;;;;;10.70;100.00;100065.19;5075106;28;20025;-49
2023/03/31 01:05:50;;;;;;;32.60;5.97;;;;;;;10.75;100.00;100068.09;5069049;28;20040;-48
2023/03/31 01:08:18;;;;;;;50.58;5.40;;;;;;;10.75;100.00;100068.09;5067811;28;20273;-49
2023/03/31 01:10:59;;;;;;;47.17;5.65;;;;;;;10.72;100.00;100068.50;5082906;28;20020;-49
2023/03/31 01:13:26;;;;;;;42.97;5.78;;;;;;;10.63;100.00;100067.00;5069710;28;20097;-48
2023/03/31 01:15:52;;;;;;;50.28;6.25;;;;;;;10.58;100.00;100068.66;5067318;28;20037;-50
2023/03/31 01:18:20;;;;;;;47.58;6.43;;;;;;;10.57;100.00;100077.75;5067820;28;20028;-48
2023/03/31 01:21:07;;;;;;;42.97;5.35;;;;;;;10.51;100.00;100057.88;5077735;28;20020;-49
2023/03/31 01:23:55;;;;;;;48.78;5.03;;;;;;;10.48;100.00;100063.66;5082248;28;20035;-47
2023/03/31 01:26:49;;;;;;;32.47;5.20;;;;;;;10.39;100.00;100060.28;5074298;28;20043;-49
2023/03/31 01:29:35;;;;;;;42.97;6.43;;;;;;;10.35;100.00;100050.97;5070715;28;20444;-50
2023/03/31 01:32:15;;;;;;;56.63;7.60;;;;;;;10.30;100.00;100032.75;5048620;28;20132;-50
2023/03/31 01:34:59;;;;;;;58.20;6.88;;;;;;;10.31;100.00;100044.31;5065901;28;20123;-49
2023/03/31 01:37:52;;;;;;;50.80;6.05;;;;;;;10.26;100.00;100047.56;5071366;28;20400;-48
2023/03/31 01:40:23;;;;;;;37.15;6.05;;;;;;;10.24;100.00;100033.53;5069333;28;20066;-50
2023/03/31 01:42:48;;;;;;;43.83;6.05;;;;;;;10.16;100.00;100036.34;5067728;28;20063;-52
2023/03/31 01:45:17;;;;;;;41.20;5.50;;;;;;;10.11;100.00;100025.38;5067083;28;20059;-51
2023/03/31 01:48:06;;;;;;;38.10;5.38;;;;;;;10.08;100.00;100025.75;5068976;28;20044;-51
2023/03/31 01:50:50;;;;;;;58.30;6.00;;;;;;;10.03;100.00;100017.47;5066738;28;20450;-52
2023/03/31 01:53:34;;;;;;;59.60;6.65;;;;;;;9.98;100.00;100011.84;5066233;28;20040;-52
2023/03/31 01:56:07;;;;;;;34.63;4.18;;;;;;;9.95;100.00;100002.31;5067481;28;20143;-51
2023/03/31 01:58:38;;;;;;;44.40;4.93;;;;;;;9.93;100.00;99993.66;5067040;28;20119;-49
2023/03/31 02:01:29;;;;;;;37.60;5.28;;;;;;;9.91;100.00;99990.31;5068911;28;20036;-50
2023/03/31 02:03:57;;;;;;;60.60;6.63;;;;;;;9.88;100.00;99986.19;5055017;28;20051;-46
2023/03/31 02:06:27;;;;;;;51.05;5.03;;;;;;;9.87;100.00;99979.16;5073384;28;20039;-48
2023/03/31 02:08:57;;;;;;;44.67;6.75;;;;;;;9.88;100.00;99974.59;5082617;28;20039;-51
2023/03/31 02:11:23;;;;;;;50.05;7.40;;;;;;;9.85;100.00;99965.06;5075479;28;20028;-50
2023/03/31 02:13:51;;;;;;;55.03;7.55;;;;;;;9.91;100.00;99959.94;5069783;28;20090;-50
2023/03/31 02:16:23;;;;;;;51.35;8.35;;;;;;;9.87;100.00;99946.03;5067568;28;20383;-49
2023/03/31 02:18:51;;;;;;;57.30;8.00;;;;;;;9.88;100.00;99948.53;5070956;28;20045;-50
2023/03/31 02:21:17;;;;;;;63.22;6.30;;;;;;;9.84;100.00;99930.31;5070053;28;20020;-49
2023/03/31 02:23:43;;;;;;;40.50;6.18;;;;;;;9.81;100.00;99926.19;5067671;28;20082;-49
2023/03/31 02:26:12;;;;;;;50.17;5.63;;;;;;;9.81;100.00;99914.59;5078649;28;20032;-48
2023/03/31 02:28:38;;;;;;;45.88;7.88;;;;;;;9.79;100.00;99906.72;5070897;28;20036;-50
2023/03/31 02:31:09;;;;;;;34.20;5.15;;;;;;;9.78;100.00;99904.25;5070165;28;20043;-50
2023/03/31 02:33:35;;;;;;;35.50;6.18;;;;;;;9.77;100.00;99892.69;5085621;28;20043;-47
2023/03/31 02:36:00;;;;;;;44.47;6.03;;;;;;;9.76;100.00;99874.88;5067964;28;20029;-49
2023/03/31 02:38:26;;;;;;;38.35;8.00;;;;;;;9.77;100.00;99876.56;5067270;28;20056;-52
2023/03/31 02:40:52;;;;;;;39.42;5.30;;;;;;;9.77;100.00;99863.13;5078882;28;20080;-48
2023/03/31 02:43:17;;;;;;;55.33;6.55;;;;;;;9.80;100.00;99860.03;5070396;28;20033;-50
2023/03/31 02:45:49;;;;;;;42.05;6.47;;;;;;;9.75;100.00;99841.00;5072534;28;20021;-47
2023/03/31 02:48:17;;;;;;;50.17;6.68;;;;;;;9.74;100.00;99842.03;5072971;28;20523;-49
2023/03/31 02:51:09;;;;;;;45.78;7.95;;;;;;;9.68;100.00;99840.13;5074626;28;20070;-48
2023/03/31 02:53:53;;;;;;;39.88;6.97;;;;;;;9.69;100.00;99820.31;5071696;28;20024;-48
2023/03/31 02:56:45;;;;;;;40.80;7.47;;;;;;;9.71;100.00;99818.25;5086872;28;20479;-50
2023/03/31 02:59:22;;;;;;;44.97;8.23;;;;;;;9.73;100.00;99807.31;5091348;28;20032;-48
2023/03/31 03:02:23;;;;;;;39.15;7.25;;;;;;;9.72;100.00;99802.97;5091436;28;20036;-46
2023/03/31 03:05:09;;;;;;;40.25;7.30;;;;;;;9.64;100.00;99806.66;5061367;28;20036;-46
2023/03/31 03:07:54;;;;;;;39.80;6.13;;;;;;;9.64;100.00;99803.97;5090002;28;20025;-45
2023/03/31 03:10:45;;;;;;;36.35;5.72;;;;;;;9.59;100.00;99798.38;5060544;28;20119;-50
2023/03/31 03:13:32;;;;;;;35.78;5.50;;;;;;;9.56;100.00;99788.03;5069839;28;20124;-52
2023/03/31 03:16:27;;;;;;;28.57;3.77;;;;;;;9.55;100.00;99781.00;5069548;28;20062;-57
2023/03/31 03:19:00;;;;;;;24.63;3.83;;;;;;;9.38;100.00;99767.91;5070989;28;20035;-52
2023/03/31 03:21:26;;;;;;;26.60;3.40;;;;;;;9.37;100.00;99768.97;5072612;28;20029;-49
2023/03/31 03:23:52;;;;;;;35.47;4.65;;;;;;;9.31;100.00;99761.69;5071650;28;20395;-47
2023/03/31 03:26:23;;;;;;;16.98;2.47;;;;;;;9.15;100.00;99745.91;5071393;28;20069;-48
2023/03/31 03:28:49;;;;;;;17.73;1.60;;;;;;;9.11;100.00;99742.81;5069645;28;20660;-48
2023/03/31 03:31:15;;;;;;;24.27;2.80;;;;;;;9.06;100.00;99722.94;5071681;28;20119;-50
2023/03/31 03:33:41;;;;;;;18.33;2.42;;;;;;;9.10;100.00;99719.66;5070860;28;20175;-48
2023/03/31 03:36:07;;;;;;;18.45;2.17;;;;;;;9.05;100.00;99710.56;5071289;28;20120;-46
2023/03/31 03:38:32;;;;;;;13.75;1.90;;;;;;;9.04;100.00;99700.88;5069153;28;20661;-48
2023/03/31 03:40:58;;;;;;;27.17;2.25;;;;;;;9.02;100.00;99688.47;5068388;28;20076;-48
2023/03/31 03:43:23;;;;;;;14.90;2.75;;;;;;;9.00;100.00;99681.63;5069990;28;20045;-49
2023/03/31 03:45:49;;;;;;;23.30;2.20;;;;;;;8.99;100.00;99678.13;5066622;28;20103;-48
2023/03/31 03:48:14;;;;;;;15.52;2.30;;;;;;;9.00;100.00;99671.75;5069481;28;20442;-47
2023/03/31 03:50:40;;;;;;;17.95;2.20;;;;;;;9.03;100.00;99670.53;5068458;28;20097;-48
2023/03/31 03:53:06;;;;;;;17.98;2.72;;;;;;;9.05;100.00;99662.25;5068542;28;20374;-47
2023/03/31 03:55:31;;;;;;;29.48;2.67;;;;;;;9.06;100.00;99662.06;5066087;28;20051;-47
2023/03/31 03:57:57;;;;;;;26.17;4.00;;;;;;;9.08;100.00;99651.13;5068234;28;20035;-46
2023/03/31 04:00:22;;;;;;;16.08;3.20;;;;;;;9.14;100.00;99644.97;5069052;28;20027;-47
2023/03/31 04:02:47;;;;;;;37.53;4.80;;;;;;;9.19;100.00;99632.59;5069782;28;20036;-47
2023/03/31 04:05:13;;;;;;;35.55;5.93;;;;;;;9.21;100.00;99629.69;5069378;28;20083;-46
2023/03/31 04:07:38;;;;;;;38.13;7.22;;;;;;;9.17;100.00;99617.72;5068371;28;20033;-46
2023/03/31 04:10:04;;;;;;;32.60;7.68;;;;;;;9.25;100.00;99614.84;5068859;28;20032;-48
2023/03/31 04:12:29;;;;;;;42.53;8.32;;;;;;;9.26;100.00;99616.47;5069679;28;20032;-56
2023/03/31 04:14:55;;;;;;;47.33;9.82;;;;;;;9.25;100.00;99620.19;5068266;28;20512;-55
2023/03/31 04:17:31;;;;;;;46.45;12.18;;;;;;;9.27;100.00;99602.03;5075609;28;20039;-54
2023/03/31 04:20:08;;;;;;;36.95;9.35;;;;;;;9.26;100.00;99594.19;5073648;28;20032;-50
2023/03/31 04:22:39;;;;;;;45.70;10.70;;;;;;;9.23;100.00;99585.50;5065372;28;20027;-49
2023/03/31 04:25:13;;;;;;;46.00;9.85;;;;;;;9.26;100.00;99581.56;5049824;28;20358;-51
2023/03/31 04:27:49;;;;;;;44.72;10.77;;;;;;;9.28;100.00;99566.09;5061587;28;20127;-48
2023/03/31 04:30:24;;;;;;;51.53;10.55;;;;;;;9.32;100.00;99561.97;5070539;28;20031;-49
2023/03/31 04:33:16;;;;;;;50.13;10.65;;;;;;;9.40;100.00;99569.84;5057995;28;20444;-47
2023/03/31 04:35:48;;;;;;;35.63;8.40;;;;;;;9.38;100.00;99557.66;5080437;28;20044;-48
2023/03/31 04:38:17;;;;;;;31.50;8.75;;;;;;;9.44;100.00;99552.25;5081577;28;20472;-48
2023/03/31 04:40:44;;;;;;;38.35;8.35;;;;;;;9.45;100.00;99545.88;5072601;28;20035;-47
2023/03/31 04:43:10;;;;;;;35.75;7.97;;;;;;;9.48;100.00;99543.78;5071034;28;20052;-48
2023/03/31 04:45:35;;;;;;;39.72;8.05;;;;;;;9.47;100.00;99539.47;5071017;28;20068;-47
2023/03/31 04:48:00;;;;;;;40.20;7.45;;;;;;;9.44;100.00;99530.78;5069503;28;20135;-49
2023/03/31 04:50:27;;;;;;;52.30;8.40;;;;;;;9.47;100.00;99526.84;5070107;28;20025;-50
2023/03/31 04:52:52;;;;;;;30.33;6.40;;;;;;;9.49;100.00;99527.47;5071178;28;20036;-47
2023/03/31 04:55:17;;;;;;;41.60;6.35;;;;;;;9.44;100.00;99517.34;5069865;28;20064;-46
2023/03/31 04:57:43;;;;;;;26.77;5.25;;;;;;;9.47;100.00;99510.75;5070070;28;20028;-47
2023/03/31 05:00:09;;;;;;;33.30;6.28;;;;;;;9.45;100.00;99502.91;5065348;28;20032;-47
2023/03/31 05:02:35;;;;;;;30.17;4.18;;;;;;;9.42;100.00;99502.47;5065706;28;20035;-47
2023/03/31 05:05:00;;;;;;;27.15;5.13;;;;;;;9.41;100.00;99498.16;5068484;28;20029;-48
2023/03/31 05:07:26;;;;;;;23.00;4.32;;;;;;;9.41;100.00;99500.84;5061807;28;20131;-50
2023/03/31 05:09:51;;;;;;;28.77;4.07;;;;;;;9.38;100.00;99495.88;5069892;28;20085;-46
2023/03/31 05:12:16;;;;;;;17.88;3.17;;;;;;;9.40;100.00;99488.44;5084239;28;20084;-48
2023/03/31 05:14:42;;;;;;;23.15;3.60;;;;;;;9.39;100.00;99478.72;5072820;28;20064;-49
2023/03/31 05:17:07;;;;;;;21.45;3.78;;;;;;;9.44;100.00;99485.13;5051363;28;20021;-46
2023/03/31 05:19:33;;;;;;;17.33;3.63;;;;;;;9.46;100.00;99474.19;5071538;28;20548;-48
2023/03/31 05:21:58;;;;;;;24.10;3.20;;;;;;;9.52;100.00;99472.53;5071867;28;20032;-45
2023/03/31 05:24:23;;;;;;;21.48;3.25;;;;;;;9.44;100.00;99469.00;5067750;28;20016;-46
2023/03/31 05:26:51;;;;;;;12.80;2.40;;;;;;;9.41;100.00;99463.25;5070135;28;20024;-47
2023/03/31 05:29:19;;;;;;;12.93;3.20;;;;;;;9.41;100.00;99469.44;5070425;28;20124;-49
2023/03/31 05:31:45;;;;;;;11.18;2.78;;;;;;;9.41;100.00;99458.69;5070120;28;20074;-48
2023/03/31 05:34:11;;;;;;;19.85;3.78;;;;;;;9.44;100.00;99450.22;5087972;28;20452;-47
2023/03/31 05:36:36;;;;;;;9.48;2.30;;;;;;;9.47;100.00;99456.22;5074192;28;20021;-47
2023/03/31 05:39:04;;;;;;;10.88;3.33;;;;;;;9.44;100.00;99450.22;5078728;28;20051;-46
2023/03/31 05:41:29;;;;;;;17.97;2.97;;;;;;;9.43;100.00;99447.75;5069823;28;20392;-49
2023/03/31 05:43:55;;;;;;;11.93;3.00;;;;;;;9.41;100.00;99455.19;5068059;28;20297;-48
2023/03/31 05:46:20;;;;;;;10.27;3.05;;;;;;;9.40;100.00;99450.84;5069823;28;20031;-46
2023/03/31 05:48:45;;;;;;;12.90;3.80;;;;;;;9.39;100.00;99438.44;5084127;28;20048;-47
2023/03/31 05:51:11;;;;;;;20.52;4.22;;;;;;;9.42;100.00;99428.09;5077557;28;20031;-50
2023/03/31 05:53:36;;;;;;;11.25;3.47;;;;;;;9.42;100.00;99430.78;5070994;28;20032;-46
2023/03/31 05:56:04;;;;;;;16.58;4.05;;;;;;;9.40;100.00;99430.19;5068003;28;20068;-47
2023/03/31 05:58:30;;;;;;;;;;;;;;;9.37;100.00;99422.56;5069123;28;20111;-48
2023/03/31 06:01:04;;;;;;;13.35;3.95;;;;;;;9.41;100.00;99420.28;5069847;28;20015;-48
2023/03/31 06:03:33;;;;;;;12.38;4.15;;;;;;;9.31;100.00;99433.31;5065920;28;20419;-46
2023/03/31 06:06:00;;;;;;;13.98;3.13;;;;;;;9.29;100.00;99420.06;5076098;28;20096;-48
2023/03/31 06:08:26;;;;;;;16.85;3.03;;;;;;;9.25;100.00;99421.53;5089804;28;20028;-50
2023/03/31 06:10:51;;;;;;;16.88;2.60;;;;;;;9.23;100.00;99418.22;5068559;28;20093;-49
2023/03/31 06:13:17;;;;;;;17.88;2.47;;;;;;;9.22;100.00;99414.72;5071630;28;20035;-48
2023/03/31 06:15:42;;;;;;;13.35;2.03;;;;;;;9.19;100.00;99408.97;5076357;28;20435;-48
2023/03/31 06:18:09;;;;;;;24.45;2.15;;;;;;;9.18;100.00;99407.28;5073837;28;20059;-50
2023/03/31 06:20:35;;;;;;;17.13;2.20;;;;;;;9.13;100.00;99405.22;5075819;28;20036;-50
2023/03/31 06:23:01;;;;;;;11.95;2.15;;;;;;;9.13;100.00;99409.78;5079014;28;20031;-53
2023/03/31 06:25:26;;;;;;;13.77;2.67;;;;;;;9.08;100.00;99405.00;5085226;28;20020;-56
2023/03/31 06:27:51;;;;;;;23.98;3.33;;;;;;;9.07;100.00;99398.00;5073111;28;20036;-52
2023/03/31 06:30:17;;;;;;;16.70;3.28;;;;;;;9.09;100.00;99405.88;5073409;28;20016;-50
2023/03/31 06:32:42;;;;;;;21.60;4.63;;;;;;;9.10;100.00;99404.81;5074893;28;20078;-50
2023/03/31 06:35:07;;;;;;;30.52;5.90;;;;;;;9.11;100.00;99398.41;5084078;28;20510;-47
2023/03/31 06:37:33;;;;;;;19.75;5.70;;;;;;;9.13;100.00;99396.34;5072024;28;20656;-46
2023/03/31 06:39:58;;;;;;;20.90;5.70;;;;;;;9.14;100.00;99403.38;5066292;28;20033;-48
2023/03/31 06:42:24;;;;;;;23.08;5.45;;;;;;;9.18;100.00;99396.56;5072742;28;20109;-46
2023/03/31 06:44:49;;;;;;;29.40;5.85;;;;;;;9.19;100.00;99396.34;5071682;28;20029;-46
2023/03/31 06:47:14;;;;;;;23.73;4.75;;;;;;;9.22;100.00;99389.75;5074702;28;20040;-49
2023/03/31 06:49:40;;;;;;;29.67;5.63;;;;;;;9.26;100.00;99399.03;5072446;28;20020;-48
2023/03/31 06:52:05;;;;;;;32.45;6.53;;;;;;;9.25;100.00;99383.97;5073219;28;20497;-47
2023/03/31 06:54:30;;;;;;;30.52;5.90;;;;;;;9.29;100.00;99392.41;5069569;28;20432;-47
2023/03/31 06:56:56;;;;;;;32.92;6.57;;;;;;;9.29;100.00;99389.72;5067452;28;20025;-46
2023/03/31 06:59:21;;;;;;;18.92;5.93;;;;;;;9.33;100.00;99386.41;5069576;28;20050;-47
2023/03/31 07:01:47;;;;;;;35.63;6.22;;;;;;;9.33;100.00;99386.41;5071855;28;20442;-47
2023/03/31 07:04:13;;;;;;;21.70;6.50;;;;;;;9.38;100.00;99372.38;5072394;28;20067;-46
2023/03/31 07:06:38;;;;;;;34.60;6.47;;;;;;;9.40;100.00;99389.91;5072570;28;20016;-46
2023/03/31 07:09:03;;;;;;;36.55;7.75;;;;;;;9.46;100.00;99369.44;5068781;28;20024;-47
2023/03/31 07:11:29;;;;;;;23.35;7.10;;;;;;;9.49;100.00;99374.41;5074368;28;20154;-47
2023/03/31 07:13:54;;;;;;;25.48;7.18;;;;;;;9.56;100.00;99374.41;5072137;28;20451;-47
2023/03/31 07:16:20;;;;;;;27.00;7.03;;;;;;;9.64;100.00;99358.03;5072344;28;20032;-48
2023/03/31 07:18:45;;;;;;;37.10;7.75;;;;;;;9.71;100.00;99361.50;5072611;28;20025;-46
2023/03/31 07:21:10;;;;;;;32.05;7.88;;;;;;;9.80;100.00;99359.44;5073358;28;20118;-48
2023/03/31 07:23:36;;;;;;;41.58;9.48;;;;;;;9.86;100.00;99348.63;5073637;28;20064;-48
2023/03/31 07:26:02;;;;;;;33.13;8.13;;;;;;;9.91;100.00;99352.56;5071935;28;20064;-46
2023/03/31 07:28:28;;;;;;;33.50;7.20;;;;;;;9.92;100.00;99343.44;5073599;28;20063;-47
2023/03/31 07:30:54;;;;;;;35.03;6.22;;;;;;;9.90;100.00;99341.00;5070443;28;20024;-47
2023/03/31 07:33:19;;;;;;;44.58;7.30;;;;;;;9.89;100.00;99326.69;5072905;28;20077;-47
2023/03/31 07:35:45;;;;;;;32.13;7.32;;;;;;;9.97;100.00;99332.88;5071186;28;20511;-48
2023/03/31 07:38:11;;;;;;;42.42;8.18;;;;;;;9.91;100.00;99337.25;5075288;28;20039;-47
2023/03/31 07:40:37;;;;;;;37.05;7.47;;;;;;;9.89;100.00;99325.88;5069045;28;20128;-56
2023/03/31 07:43:02;;;;;;;46.55;7.28;;;;;;;9.93;100.00;99318.25;5071463;28;20028;-49
2023/03/31 07:45:28;;;;;;;40.65;7.18;;;;;;;9.99;100.00;99320.06;5077170;28;20039;-48
2023/03/31 07:47:53;;;;;;;38.55;6.68;;;;;;;10.01;100.00;99316.09;5070309;28;20055;-48
2023/03/31 07:50:20;;;;;;;42.60;6.40;;;;;;;10.07;100.00;99327.84;5072844;28;20029;-49
2023/03/31 07:52:46;;;;;;;40.95;6.38;;;;;;;10.11;100.00;99308.41;5072158;28;20024;-49
2023/03/31 07:55:11;;;;;;;32.00;6.28;;;;;;;10.19;100.00;99301.94;5072629;28;20031;-50
2023/03/31 07:57:37;;;;;;;32.88;6.18;;;;;;;10.26;100.00;99291.94;5070938;28;20079;-50
2023/03/31 08:00:06;;;;;;;35.95;6.10;;;;;;;10.32;100.00;99291.13;5074536;28;20631;-50
2023/03/31 08:02:32;;;;;;;36.08;6.07;;;;;;;10.43;100.00;99283.41;5067968;28;20063;-48
2023/03/31 08:04:57;;;;;;;46.90;5.32;;;;;;;10.51;100.00;99272.34;5071263;28;20020;-49
2023/03/31 08:07:24;;;;;;;32.60;4.93;;;;;;;10.59;100.00;99269.38;5068927;28;20209;-49
2023/03/31 08:09:50;;;;;;;47.95;5.40;;;;;;;10.65;100.00;99259.59;5071707;28;20024;-48
2023/03/31 08:12:15;;;;;;;34.60;4.30;;;;;;;10.73;100.00;99260.13;5073720;28;20512;-49
2023/03/31 08:14:41;;;;;;;51.22;7.57;;;;;;;10.77;100.00;99257.84;5069939;28;20077;-49
2023/03/31 08:17:06;;;;;;;36.53;4.75;;;;;;;10.82;100.00;99243.69;5068536;28;20032;-48
2023/03/31 08:19:33;;;;;;;36.35;4.57;;;;;;;10.94;100.00;99245.44;5071389;28;20060;-50
2023/03/31 08:21:58;;;;;;;27.73;5.38;;;;;;;10.91;100.00;99237.81;5075675;28;20028;-50
2023/03/31 08:24:24;;;;;;;26.55;4.70;;;;;;;10.88;100.00;99249.03;5069732;28;20127;-49
2023/03/31 08:26:49;;;;;;;42.55;5.80;;;;;;;10.73;100.00;99237.78;5091948;23;20060;-82
2023/03/31 08:29:14;;;;;;;50.80;6.22;;;;;;;10.47;100.00;99261.19;5085294;28;20068;-84
2023/03/31 08:31:40;;;;;;;51.40;5.82;;;;;;;10.28;100.00;99254.13;5074326;28;20158;-83
2023/03/31 08:34:05;;;;;;;45.35;5.88;;;;;;;10.21;100.00;99251.44;5059955;28;20114;-82
2023/03/31 08:36:31;;;;;;;58.30;7.13;;;;;;;10.20;100.00;99255.19;5067307;28;20021;-81
2023/03/31 08:38:57;;;;;;;44.50;6.07;;;;;;;10.15;100.00;99259.56;5071408;28;20055;-84
2023/03/31 08:41:45;;;;;;;53.00;6.82;;;;;;;10.10;100.00;99254.84;5063942;28;20421;-81
2023/03/31 08:44:31;;;;;;;56.65;7.28;;;;;;;10.09;100.00;99245.16;5073371;28;20020;-82
2023/03/31 08:46:58;;;;;;;49.58;7.15;;;;;;;10.21;100.00;99243.38;5074938;28;20031;-80
2023/03/31 08:49:24;;;;;;;59.50;7.07;;;;;;;10.22;100.00;99242.34;5082816;28;20033;-83
2023/03/31 08:52:04;;;;;;;60.60;8.57;;;;;;;10.28;100.00;99238.81;5062326;28;20033;-84
2023/03/31 08:54:41;;;;;;;61.80;8.18;;;;;;;10.38;100.00;99232.13;5074012;28;20033;-82
2023/03/31 08:57:15;;;;;;;52.60;7.13;;;;;;;10.60;100.00;99227.97;5062934;28;20028;-80
2023/03/31 08:59:43;;;;;;;43.28;7.38;;;;;;;10.78;100.00;99224.50;5076230;28;20033;-83
2023/03/31 09:02:12;;;;;;;56.38;8.98;;;;;;;10.83;100.00;99227.34;5076261;28;20071;-84
2023/03/31 09:04:57;;;;;;;43.17;5.30;;;;;;;10.93;100.00;99186.47;5067519;28;20085;-80
2023/03/31 09:07:28;;;;;;;54.17;6.00;;;;;;;10.93;100.00;99192.66;5064861;28;20033;-81
2023/03/31 09:10:12;;;;;;;47.00;5.70;;;;;;;10.86;100.00;99189.22;5062744;28;20037;-79
2023/03/31 09:12:46;;;;;;;48.30;5.38;;;;;;;10.90;100.00;99182.34;5072591;28;20033;-82
2023/03/31 09:15:36;;;;;;;48.75;5.53;;;;;;;10.85;100.00;99174.13;5063719;28;20029;-81
2023/03/31 09:18:26;;;;;;;44.95;5.38;;;;;;;10.86;100.00;99174.94;5052734;28;20067;-83
2023/03/31 09:20:56;;;;;;;41.72;4.90;;;;;;;10.74;100.00;99181.06;5067312;28;20465;-81
2023/03/31 09:23:49;;;;;;;58.88;7.68;;;;;;;10.67;100.00;99182.19;5077831;28;20036;-81
2023/03/31 09:26:21;;;;;;;46.05;5.75;;;;;;;10.53;100.00;99186.84;5075757;28;20032;-81
2023/03/31 09:28:47;;;;;;;38.63;5.95;;;;;;;10.47;100.00;99182.38;5062304;28;20036;-81
2023/03/31 09:31:17;;;;;;;50.58;6.55;;;;;;;10.39;100.00;99179.97;5065754;28;20029;-83
2023/03/31 09:33:46;;;;;;;63.53;6.43;;;;;;;10.38;100.00;99179.16;5065266;28;20025;-81
2023/03/31 09:36:16;;;;;;;60.15;5.75;;;;;;;10.38;100.00;99172.97;5081855;28;20037;-81
2023/03/31 09:38:42;;;;;;;57.63;5.60;;;;;;;10.32;100.00;99170.13;5075318;28;20028;-82
2023/03/31 09:41:08;;;;;;;51.83;6.88;;;;;;;10.35;100.00;99165.31;5088993;28;20032;-81
2023/03/31 09:43:34;;;;;;;59.13;7.38;;;;;;;10.29;100.00;99162.50;5082362;28;20028;-78
2023/03/31 09:46:00;;;;;;;51.40;5.57;;;;;;;10.29;100.00;99173.25;5066159;28;20029;-81
2023/03/31 09:48:28;;;;;;;68.88;7.70;;;;;;;10.26;100.00;99170.94;5074287;28;20059;-81
2023/03/31 09:50:56;;;;;;;;;;;;;;;10.14;100.00;99177.25;5079282;28;20385;-80
2023/03/31 09:53:46;;;;;;;47.58;6.93;;;;;;;10.15;100.00;99190.50;5076983;28;19962;-82
2023/03/31 09:56:12;;;;;;;53.75;8.27;;;;;;;10.17;100.00;99183.03;5058455;28;20330;-84
2023/03/31 09:58:42;;;;;;;57.58;7.82;;;;;;;10.14;100.00;99188.00;5060303;28;20095;-82
2023/03/31 10:01:10;;;;;;;41.22;6.05;;;;;;;10.17;100.00;99188.41;5074312;28;20032;-80
2023/03/31 10:03:53;;;;;;;68.63;9.30;;;;;;;10.21;100.00;99189.59;5077281;28;20021;-82
2023/03/31 10:06:19;;;;;;;50.83;6.85;;;;;;;10.18;100.00;99178.47;5078180;28;20088;-82
2023/03/31 10:08:55;;;;;;;68.07;7.00;;;;;;;10.19;100.00;99174.75;5077541;28;20411;-80
2023/03/31 10:11:21;;;;;;;54.05;8.38;;;;;;;10.20;100.00;99179.09;5080703;28;20373;-80
2023/03/31 10:14:03;;;;;;;51.80;7.88;;;;;;;10.25;100.00;99171.19;5080523;28;20020;-82
2023/03/31 10:16:49;;;;;;;59.55;6.82;;;;;;;10.29;100.00;99161.66;5078906;28;20028;-81
2023/03/31 10:19:23;;;;;;;42.10;5.32;;;;;;;10.28;100.00;99157.31;5079744;28;20096;-80
2023/03/31 10:22:00;;;;;;;55.15;6.35;;;;;;;10.35;100.00;99166.16;5074698;28;20092;-81
2023/03/31 10:24:38;;;;;;;62.75;5.68;;;;;;;10.33;100.00;99150.25;5059142;28;20686;-81
2023/03/31 10:27:05;;;;;;;38.63;6.18;;;;;;;10.35;100.00;99150.03;5059480;28;20386;-81
2023/03/31 10:29:32;;;;;;;41.58;5.15;;;;;;;10.36;100.00;99148.16;5059633;28;20037;-81
2023/03/31 10:32:08;;;;;;;37.20;4.50;;;;;;;10.39;100.00;99145.84;5062978;28;20111;-82
2023/03/31 10:34:37;;;;;;;42.60;4.53;;;;;;;10.40;100.00;99160.09;5060171;28;20521;-80
2023/03/31 10:37:03;;;;;;;36.63;3.78;;;;;;;10.34;100.00;99156.44;5058455;28;20025;-79
2023/03/31 10:39:31;;;;;;;45.03;5.68;;;;;;;10.37;100.00;99152.47;5058481;28;20025;-81
2023/03/31 10:41:56;;;;;;;38.40;4.88;;;;;;;10.32;100.00;99164.75;5059001;28;20033;-83
2023/03/31 10:44:35;;;;;;;41.60;4.55;;;;;;;10.33;100.00;99147.56;5059562;28;20029;-80
2023/03/31 10:47:13;;;;;;;49.97;4.05;;;;;;;10.47;100.00;99167.06;5073703;28;20477;-81
2023/03/31 10:49:40;;;;;;;31.90;3.90;;;;;;;10.45;100.00;99144.13;5079708;28;20086;-81
2023/03/31 10:52:23;;;;;;;31.13;4.20;;;;;;;10.30;100.00;99139.13;5078486;28;20092;-82
2023/03/31 10:55:00;;;;;;;32.15;4.00;;;;;;;10.30;100.00;99131.88;5078017;28;20086;-80
2023/03/31 10:57:52;;;;;;;30.35;3.88;;;;;;;10.24;100.00;99132.72;5078411;28;20111;-81
2023/03/31 11:00:29;;;;;;;32.70;3.90;;;;;;;10.31;100.00;99130.81;5077535;28;20039;-81
2023/03/31 11:03:16;;;;;;;39.28;3.60;;;;;;;10.36;100.00;99129.34;5059557;28;20108;-81
2023/03/31 11:05:49;;;;;;;40.67;3.95;;;;;;;10.37;100.00;99136.34;5061589;28;20629;-80
2023/03/31 11:08:17;;;;;;;35.42;5.80;;;;;;;10.21;100.00;99114.31;5065690;28;20538;-81
2023/03/31 11:10:54;;;;;;;38.00;4.10;;;;;;;10.16;100.00;99110.66;5062303;28;20326;-82
2023/03/31 11:13:37;;;;;;;43.90;4.93;;;;;;;10.13;100.00;99117.31;5063400;28;20028;-82
2023/03/31 11:16:15;;;;;;;32.47;4.00;;;;;;;10.11;100.00;99154.38;5074338;28;20029;-79
2023/03/31 11:19:08;;;;;;;33.63;6.00;;;;;;;10.08;100.00;99117.16;5078444;28;20499;-81
2023/03/31 11:22:15;;;;;;;16.65;3.55;;;;;;;10.06;100.00;99114.69;5068482;28;20126;-80
2023/03/31 11:25:08;;;;;;;26.58;4.65;;;;;;;10.00;100.00;99112.06;5047430;28;20098;-79
2023/03/31 11:27:47;;;;;;;33.40;4.85;;;;;;;9.96;100.00;99127.81;5061058;28;20045;-80
2023/03/31 11:30:23;;;;;;;38.08;4.05;;;;;;;9.91;100.00;99124.97;5062673;28;20032;-79
2023/03/31 11:33:19;;;;;;;29.60;4.18;;;;;;;9.99;100.00;99126.53;5060607;28;20149;-79
2023/03/31 11:36:18;;;;;;;44.63;5.82;;;;;;;9.91;100.00;99124.13;5069537;28;20031;-80